Time;durP1;ratioP1;P1;durP2;ratioP2;P2;SDS_P1;SDS_P2;PMS_P1;PMS_P2;Temp;Humidity;BMP_temperature;BMP_pressure;BME280_temperature;BME280_humidity;BME280_pressure;Samples;Min_cycle;Max_cycle;Signal;HPM_P1;HPM_P2
2022/12/14 00:00:51;;;;;;;20.00;10.88;;;-2.00;99.90;;;;;;5046363;28;20049;-50
2022/12/14 00:03:17;;;;;;;22.52;10.65;;;-2.00;99.90;;;;;;5031233;28;20064;-48
2022/12/14 00:05:43;;;;;;;20.40;10.95;;;-1.90;99.90;;;;;;5049475;28;20037;-43
2022/12/14 00:08:10;;;;;;;16.58;11.00;;;-2.00;99.90;;;;;;5047310;28;20028;-45
2022/12/14 00:10:38;;;;;;;17.85;10.70;;;-2.00;99.90;;;;;;5026048;28;20055;-48
2022/12/14 00:13:04;;;;;;;17.90;10.63;;;-2.00;99.90;;;;;;5030254;28;20044;-48
2022/12/14 00:15:29;;;;;;;18.38;10.32;;;-2.00;99.90;;;;;;5011405;28;20129;-49
2022/12/14 00:17:55;;;;;;;17.35;10.48;;;-2.00;99.90;;;;;;5012661;28;20549;-40
2022/12/14 00:20:21;;;;;;;19.35;11.20;;;-1.90;99.90;;;;;;5030779;28;20051;-45
2022/12/14 00:22:47;;;;;;;16.42;9.82;;;-1.80;99.90;;;;;;5031728;28;20405;-44
2022/12/14 00:25:12;;;;;;;18.33;10.32;;;-1.80;99.90;;;;;;5032302;28;20084;-39
2022/12/14 00:27:43;;;;;;;16.00;9.90;;;-1.80;99.90;;;;;;5032434;28;20025;-51
2022/12/14 00:30:10;;;;;;;15.77;10.00;;;-1.80;99.90;;;;;;5032423;28;20421;-44
2022/12/14 00:32:35;;;;;;;19.85;10.20;;;-1.90;99.90;;;;;;5032239;28;20033;-44
2022/12/14 00:35:01;;;;;;;17.00;9.50;;;-1.90;99.90;;;;;;5032311;28;20032;-48
2022/12/14 00:37:26;;;;;;;15.93;10.15;;;-1.80;99.90;;;;;;5032223;28;20033;-45
2022/12/14 00:39:52;;;;;;;15.98;9.68;;;-1.80;99.90;;;;;;5032216;28;20087;-44
2022/12/14 00:42:17;;;;;;;16.83;10.68;;;-1.80;99.90;;;;;;5030733;28;20424;-42
2022/12/14 00:44:43;;;;;;;21.35;11.32;;;-1.80;99.90;;;;;;5031825;28;20025;-47
2022/12/14 00:47:08;;;;;;;15.48;10.15;;;-1.90;99.90;;;;;;5032019;28;20037;-43
2022/12/14 00:49:34;;;;;;;13.95;8.88;;;-1.90;99.90;;;;;;5032088;28;20029;-47
2022/12/14 00:51:59;;;;;;;16.17;9.57;;;-1.90;99.90;;;;;;5031761;28;20029;-48
2022/12/14 00:54:25;;;;;;;17.38;10.35;;;-1.80;99.90;;;;;;5030851;28;20124;-50
2022/12/14 00:56:50;;;;;;;14.02;10.35;;;-1.80;99.90;;;;;;5032043;28;20096;-47
2022/12/14 00:59:17;;;;;;;22.90;11.18;;;-1.80;99.90;;;;;;5031737;28;20037;-47
2022/12/14 01:01:43;;;;;;;19.77;11.68;;;-1.80;99.90;;;;;;5031738;28;20080;-46
2022/12/14 01:04:18;;;;;;;17.45;10.77;;;-1.80;99.90;;;;;;5031004;28;20453;-46
2022/12/14 01:06:48;;;;;;;17.83;9.93;;;-1.80;99.90;;;;;;5043434;23;20136;-50
2022/12/14 01:09:14;;;;;;;21.02;10.05;;;-1.80;99.90;;;;;;5011849;28;20018;-52
2022/12/14 01:11:41;;;;;;;16.10;9.90;;;-1.80;99.90;;;;;;4994424;28;20040;-53
2022/12/14 01:14:07;;;;;;;15.80;10.00;;;-1.80;99.90;;;;;;4992465;28;20053;-50
2022/12/14 01:16:33;;;;;;;16.40;9.77;;;-1.80;99.90;;;;;;5002947;28;20545;-48
2022/12/14 01:19:00;;;;;;;17.05;10.55;;;-1.80;99.90;;;;;;5031573;28;20040;-55
2022/12/14 01:21:25;;;;;;;14.13;9.38;;;-1.80;99.90;;;;;;5031726;28;20033;-55
2022/12/14 01:23:54;;;;;;;15.55;10.00;;;-1.70;99.90;;;;;;5012983;28;20028;-54
2022/12/14 01:26:21;;;;;;;24.40;11.18;;;-1.80;99.90;;;;;;5031293;28;20025;-52
2022/12/14 01:28:51;;;;;;;18.33;10.38;;;-1.80;99.90;;;;;;5031512;28;20026;-50
2022/12/14 01:31:19;;;;;;;19.23;11.05;;;-1.80;99.90;;;;;;5031237;28;20022;-52
2022/12/14 01:33:46;;;;;;;23.60;10.00;;;-1.80;99.90;;;;;;5030534;28;20032;-52
2022/12/14 01:36:25;;;;;;;18.05;9.93;;;-1.80;99.90;;;;;;5031256;28;20037;-49
2022/12/14 01:39:01;;;;;;;22.27;9.55;;;-1.80;99.90;;;;;;5031286;28;20096;-49
2022/12/14 01:41:34;;;;;;;17.27;10.32;;;-1.70;99.90;;;;;;5013535;28;20026;-50
2022/12/14 01:44:09;;;;;;;17.48;9.43;;;-1.70;99.90;;;;;;5012849;28;20021;-51
2022/12/14 01:47:12;;;;;;;18.20;10.32;;;-1.80;99.90;;;;;;5031063;28;20051;-53
2022/12/14 01:49:45;;;;;;;15.27;8.65;;;-1.80;99.90;;;;;;5013732;28;20049;-49
2022/12/14 01:52:29;;;;;;;16.52;9.77;;;-1.80;99.90;;;;;;5030579;28;20384;-49
2022/12/14 01:55:12;;;;;;;16.40;10.13;;;-1.80;99.90;;;;;;5034693;28;20022;-50
2022/12/14 01:58:02;;;;;;;17.80;8.95;;;-1.80;99.90;;;;;;5035087;28;20017;-48
2022/12/14 02:00:27;;;;;;;18.00;8.82;;;-1.90;99.90;;;;;;5035117;28;20025;-49
2022/12/14 02:03:09;;;;;;;19.15;9.48;;;-1.90;99.90;;;;;;5034343;28;20531;-49
2022/12/14 02:05:38;;;;;;;17.23;9.50;;;-1.90;99.90;;;;;;5033860;28;20066;-49
2022/12/14 02:08:04;;;;;;;15.13;9.43;;;-1.90;99.90;;;;;;5017477;28;20171;-50
2022/12/14 02:10:31;;;;;;;14.50;9.50;;;-1.90;99.90;;;;;;5017879;28;20021;-50
2022/12/14 02:13:24;;;;;;;16.15;9.60;;;-1.90;99.90;;;;;;5034842;28;20452;-49
2022/12/14 02:15:50;;;;;;;22.73;9.38;;;-1.90;99.90;;;;;;5033894;28;20017;-52
2022/12/14 02:18:24;;;;;;;11.15;8.25;;;-1.90;99.90;;;;;;5034639;28;20043;-51
2022/12/14 02:21:02;;;;;;;16.83;9.80;;;-1.90;99.90;;;;;;5034876;28;20079;-49
2022/12/14 02:23:55;;;;;;;17.73;10.00;;;-2.00;99.90;;;;;;5034289;28;20509;-50
2022/12/14 02:26:35;;;;;;;14.90;9.38;;;-2.00;99.90;;;;;;5034564;28;20109;-55
2022/12/14 02:29:05;;;;;;;16.83;9.07;;;-2.00;99.90;;;;;;5034618;28;20026;-52
2022/12/14 02:32:19;;;;;;;15.48;8.77;;;-2.00;99.90;;;;;;5034715;28;20477;-55
2022/12/14 02:35:16;;;;;;;10.50;7.85;;;-2.00;99.90;;;;;;5034642;28;20555;-50
2022/12/14 02:37:56;;;;;;;15.77;8.98;;;-1.90;99.90;;;;;;5034279;28;20396;-49
2022/12/14 02:40:30;;;;;;;15.32;9.32;;;-1.90;99.90;;;;;;5016598;28;20025;-53
2022/12/14 02:43:37;;;;;;;17.33;10.47;;;-1.90;99.90;;;;;;5015722;28;20025;-50
2022/12/14 02:46:21;;;;;;;14.20;9.85;;;-2.00;99.90;;;;;;5031608;28;20643;-51
2022/12/14 02:49:02;;;;;;;15.80;9.27;;;-1.90;99.90;;;;;;5034285;28;20024;-53
2022/12/14 02:51:30;;;;;;;15.98;8.98;;;-1.90;99.90;;;;;;5034272;28;20477;-53
2022/12/14 02:54:06;;;;;;;14.30;8.35;;;-1.90;99.90;;;;;;5033385;28;20054;-47
2022/12/14 02:56:43;;;;;;;13.05;8.77;;;-1.90;99.90;;;;;;5034110;28;20436;-50
2022/12/14 02:59:09;;;;;;;21.42;9.82;;;-1.90;99.90;;;;;;5034130;28;20030;-50
2022/12/14 03:01:37;;;;;;;16.17;9.35;;;-1.90;99.90;;;;;;5033824;28;20029;-51
2022/12/14 03:04:03;;;;;;;18.55;8.30;;;-1.90;99.90;;;;;;5033165;28;20088;-53
2022/12/14 03:06:29;;;;;;;16.48;9.20;;;-1.90;99.90;;;;;;5032888;28;20120;-54
2022/12/14 03:09:07;;;;;;;13.68;9.15;;;-1.80;99.90;;;;;;5034032;28;20064;-50
2022/12/14 03:11:51;;;;;;;15.13;8.77;;;-1.80;99.90;;;;;;5033821;28;20021;-53
2022/12/14 03:14:19;;;;;;;15.20;8.68;;;-1.90;99.90;;;;;;5031760;28;20437;-51
2022/12/14 03:16:49;;;;;;;14.75;9.10;;;-1.80;99.90;;;;;;5033597;28;20025;-50
2022/12/14 03:19:21;;;;;;;13.82;9.43;;;-1.70;99.90;;;;;;5033512;28;20397;-50
2022/12/14 03:21:54;;;;;;;16.95;9.23;;;-1.70;99.90;;;;;;5033152;28;20037;-51
2022/12/14 03:24:31;;;;;;;16.02;8.48;;;-1.70;99.90;;;;;;5015811;28;20026;-53
2022/12/14 03:27:17;;;;;;;15.20;8.77;;;-1.70;99.90;;;;;;5033324;28;20426;-48
2022/12/14 03:29:54;;;;;;;13.70;8.93;;;-1.70;99.90;;;;;;5033338;28;20592;-53
2022/12/14 03:32:22;;;;;;;14.35;8.98;;;-1.80;99.90;;;;;;5015235;28;20171;-48
2022/12/14 03:34:54;;;;;;;17.25;9.68;;;-1.70;99.90;;;;;;5033607;28;20025;-49
2022/12/14 03:37:26;;;;;;;23.25;12.02;;;-1.80;99.90;;;;;;5015416;28;20040;-51
2022/12/14 03:39:51;;;;;;;12.80;9.45;;;-1.70;99.90;;;;;;5033358;28;20426;-49
2022/12/14 03:42:25;;;;;;;16.25;10.20;;;-1.70;99.90;;;;;;5032435;28;20104;-49
2022/12/14 03:45:03;;;;;;;19.58;10.77;;;-1.70;99.90;;;;;;5033215;28;20036;-50
2022/12/14 03:47:53;;;;;;;18.00;9.85;;;-1.70;99.90;;;;;;5032949;28;20018;-49
2022/12/14 03:50:48;;;;;;;18.65;9.77;;;-1.70;99.90;;;;;;5033049;28;20029;-50
2022/12/14 03:53:27;;;;;;;16.00;9.38;;;-1.70;99.90;;;;;;5032263;28;20026;-49
2022/12/14 03:56:04;;;;;;;17.52;9.57;;;-1.70;99.90;;;;;;5033129;28;20116;-52
2022/12/14 03:59:13;;;;;;;23.02;10.55;;;-1.60;99.90;;;;;;5032853;28;20017;-54
2022/12/14 04:01:50;;;;;;;15.88;10.02;;;-1.60;99.90;;;;;;5031942;28;20041;-54
2022/12/14 04:04:26;;;;;;;20.98;11.13;;;-1.60;99.90;;;;;;5032088;28;20071;-53
2022/12/14 04:06:57;;;;;;;18.48;10.60;;;-1.60;99.90;;;;;;5014720;28;20060;-50
2022/12/14 04:09:30;;;;;;;22.80;12.30;;;-1.50;99.90;;;;;;5032789;28;20021;-49
2022/12/14 04:20:42;;;;;;;21.10;11.05;;;-1.40;99.90;;;;;;5032702;28;20037;-48
2022/12/14 04:23:15;;;;;;;19.63;11.23;;;-1.40;99.90;;;;;;5031660;28;20018;-53
2022/12/14 04:26:03;;;;;;;16.38;10.40;;;-1.50;99.90;;;;;;5032299;28;20148;-50
2022/12/14 04:31:32;;;;;;;18.45;11.25;;;-1.40;99.90;;;;;;5032110;28;20094;-54
2022/12/14 04:34:03;;;;;;;19.98;11.73;;;-1.50;99.90;;;;;;5031454;28;20029;-53
2022/12/14 04:36:43;;;;;;;17.15;11.30;;;-1.50;99.90;;;;;;5032095;28;20057;-50
2022/12/14 04:39:19;;;;;;;23.73;11.30;;;-1.50;99.90;;;;;;5014681;28;20128;-49
2022/12/14 04:41:49;;;;;;;19.02;10.75;;;-1.50;99.90;;;;;;5032222;28;20064;-50
2022/12/14 04:44:39;;;;;;;18.95;10.27;;;-1.50;99.90;;;;;;5031663;28;20112;-52
2022/12/14 04:47:10;;;;;;;19.58;11.77;;;-1.50;99.90;;;;;;5031668;28;20065;-50
2022/12/14 04:49:52;;;;;;;19.80;11.23;;;-1.50;99.90;;;;;;5031968;28;20060;-52
2022/12/14 04:52:28;;;;;;;20.02;11.98;;;-1.50;99.90;;;;;;5031158;28;20104;-50
2022/12/14 04:55:26;;;;;;;19.10;10.85;;;-1.50;99.90;;;;;;5031949;28;20029;-51
2022/12/14 04:58:01;;;;;;;19.95;10.90;;;-1.50;99.90;;;;;;5031061;28;20095;-51
2022/12/14 05:00:31;;;;;;;18.52;10.60;;;-1.50;99.90;;;;;;5031982;28;20397;-50
2022/12/14 05:03:05;;;;;;;16.23;10.80;;;-1.40;99.90;;;;;;5013046;28;20489;-53
2022/12/14 05:05:43;;;;;;;18.08;10.93;;;-1.40;99.90;;;;;;5031578;28;20053;-50
2022/12/14 05:08:17;;;;;;;17.15;11.63;;;-1.40;99.90;;;;;;5031872;28;20029;-50
2022/12/14 05:11:08;;;;;;;19.80;11.18;;;-1.40;99.90;;;;;;5031678;28;20056;-49
2022/12/14 05:13:41;;;;;;;19.50;11.57;;;-1.40;99.90;;;;;;5029103;28;20085;-47
2022/12/14 05:16:07;;;;;;;17.33;10.63;;;-1.40;99.90;;;;;;5031508;28;20405;-49
2022/12/14 05:18:34;;;;;;;19.55;11.25;;;-1.50;99.90;;;;;;5031310;28;20374;-51
2022/12/14 05:21:00;;;;;;;17.95;10.80;;;-1.40;99.90;;;;;;5013750;28;20033;-51
2022/12/14 05:23:25;;;;;;;17.33;10.60;;;-1.40;99.90;;;;;;5030702;28;20021;-51
2022/12/14 05:25:51;;;;;;;19.10;11.55;;;-1.40;99.90;;;;;;5031318;28;20022;-52
2022/12/14 05:28:16;;;;;;;18.63;11.50;;;-1.40;99.90;;;;;;5030977;28;20044;-51
2022/12/14 05:30:42;;;;;;;18.42;11.50;;;-1.40;99.90;;;;;;5031633;28;20033;-51
2022/12/14 05:33:17;;;;;;;24.10;11.95;;;-1.40;99.90;;;;;;5030767;28;20056;-50
2022/12/14 05:35:42;;;;;;;18.80;10.43;;;-1.40;99.90;;;;;;5031516;28;20060;-53
2022/12/14 05:38:08;;;;;;;21.80;10.85;;;-1.40;99.90;;;;;;5031339;28;20088;-52
2022/12/14 05:40:34;;;;;;;24.85;11.60;;;-1.40;99.90;;;;;;5031556;28;20022;-53
2022/12/14 05:43:12;;;;;;;19.08;12.48;;;-1.40;99.90;;;;;;5030500;28;20100;-50
2022/12/14 05:45:37;;;;;;;21.70;12.80;;;-1.40;99.90;;;;;;5030989;28;20091;-52
2022/12/14 05:48:03;;;;;;;21.08;12.43;;;-1.40;99.90;;;;;;5013586;28;20053;-49
2022/12/14 05:50:29;;;;;;;21.85;12.73;;;-1.50;99.90;;;;;;5013713;28;20022;-48
2022/12/14 05:52:54;;;;;;;21.55;12.43;;;-1.40;99.90;;;;;;5030422;28;20067;-50
2022/12/14 05:55:20;;;;;;;19.02;11.65;;;-1.40;99.90;;;;;;5031257;28;20401;-49
2022/12/14 05:57:46;;;;;;;25.15;12.57;;;-1.50;99.90;;;;;;5031262;28;20022;-52
2022/12/14 06:00:12;;;;;;;23.08;12.13;;;-1.40;99.90;;;;;;5031470;28;20446;-50
2022/12/14 06:02:37;;;;;;;24.92;12.48;;;-1.40;99.90;;;;;;5030439;28;20026;-51
2022/12/14 06:05:03;;;;;;;17.50;11.38;;;-1.50;99.90;;;;;;5031123;28;20032;-54
2022/12/14 06:07:28;;;;;;;21.17;12.50;;;-1.40;99.90;;;;;;5031102;28;20029;-51
2022/12/14 06:09:54;;;;;;;28.95;13.57;;;-1.50;99.90;;;;;;5031067;28;20037;-48
2022/12/14 06:12:19;;;;;;;19.75;11.73;;;-1.60;99.90;;;;;;5030306;28;20037;-49
2022/12/14 06:14:45;;;;;;;19.63;11.75;;;-1.50;99.90;;;;;;5029283;28;20485;-51
2022/12/14 06:17:11;;;;;;;17.98;10.75;;;-1.40;99.90;;;;;;5030766;28;20096;-48
2022/12/14 06:19:37;;;;;;;18.33;11.93;;;-1.40;99.90;;;;;;5030806;28;20564;-52
2022/12/14 06:22:02;;;;;;;19.55;12.38;;;-1.30;99.90;;;;;;5030095;28;20116;-52
2022/12/14 06:24:28;;;;;;;23.23;13.85;;;-1.30;99.90;;;;;;5030936;28;20022;-49
2022/12/14 06:26:53;;;;;;;19.92;11.90;;;-1.40;99.90;;;;;;5030857;28;20025;-49
2022/12/14 06:29:19;;;;;;;22.50;12.90;;;-1.40;99.90;;;;;;5030906;28;20033;-50
2022/12/14 06:31:45;;;;;;;22.80;13.88;;;-1.40;99.90;;;;;;5030604;28;20051;-53
2022/12/14 06:34:12;;;;;;;26.05;14.52;;;-1.40;99.90;;;;;;5030504;28;20440;-53
2022/12/14 06:36:40;;;;;;;21.52;12.98;;;-1.40;99.90;;;;;;5031315;28;20026;-48
2022/12/14 06:39:10;;;;;;;21.45;13.52;;;-1.40;99.90;;;;;;5031054;28;20029;-47
2022/12/14 06:41:35;;;;;;;19.08;12.80;;;-1.40;99.90;;;;;;5033324;28;20031;-50
2022/12/14 06:44:04;;;;;;;23.60;13.65;;;-1.30;99.90;;;;;;5033851;28;20116;-49
2022/12/14 06:46:30;;;;;;;22.55;12.50;;;-1.30;99.90;;;;;;5034078;28;20036;-49
2022/12/14 06:48:55;;;;;;;27.33;14.32;;;-1.30;99.90;;;;;;5034141;28;20505;-48
2022/12/14 06:51:23;;;;;;;25.10;13.82;;;-1.30;99.90;;;;;;5034066;28;20033;-50
2022/12/14 06:53:53;;;;;;;23.38;13.18;;;-1.30;99.90;;;;;;5033286;28;20033;-49
2022/12/14 06:56:20;;;;;;;22.77;13.50;;;-1.20;99.90;;;;;;5034254;28;20471;-52
2022/12/14 06:58:46;;;;;;;20.45;12.85;;;-1.20;99.90;;;;;;5034024;28;20049;-50
2022/12/14 07:01:17;;;;;;;22.40;13.65;;;-1.20;99.90;;;;;;5033678;28;20111;-50
2022/12/14 07:03:46;;;;;;;22.48;14.30;;;-1.10;99.90;;;;;;5032918;28;20033;-52
2022/12/14 07:06:11;;;;;;;29.17;14.85;;;-1.20;99.90;;;;;;5056780;22;20694;-40
2022/12/14 07:08:38;;;;;;;23.63;12.95;;;-1.20;99.90;;;;;;5031630;28;20033;-45
2022/12/14 07:11:09;;;;;;;33.78;14.57;;;-1.20;99.90;;;;;;5033971;28;20045;-45
2022/12/14 07:13:35;;;;;;;24.52;14.65;;;-1.30;99.90;;;;;;5031375;28;20021;-43
2022/12/14 07:16:03;;;;;;;24.40;14.35;;;-1.20;99.90;;;;;;5033525;28;20036;-46
2022/12/14 07:18:29;;;;;;;24.10;13.63;;;-1.20;99.90;;;;;;5033540;28;20032;-44
2022/12/14 07:21:00;;;;;;;25.67;13.50;;;-1.10;99.90;;;;;;5032128;28;20025;-47
2022/12/14 07:23:29;;;;;;;21.27;13.02;;;-1.10;99.90;;;;;;5032974;28;20216;-45
2022/12/14 07:26:02;;;;;;;25.65;14.90;;;-1.20;99.90;;;;;;5033611;28;20021;-44
2022/12/14 07:28:28;;;;;;;31.05;13.77;;;-1.20;99.90;;;;;;5015655;28;20396;-45
2022/12/14 07:30:55;;;;;;;30.20;14.07;;;-1.20;99.90;;;;;;5033405;28;20026;-45
2022/12/14 07:33:21;;;;;;;23.42;13.82;;;-1.20;99.90;;;;;;5032805;28;20021;-46
2022/12/14 07:35:46;;;;;;;25.25;14.65;;;-1.20;99.90;;;;;;5033462;28;20486;-44
2022/12/14 07:38:12;;;;;;;23.35;13.48;;;-1.20;99.90;;;;;;5033111;28;20112;-43
2022/12/14 07:40:38;;;;;;;23.58;12.73;;;-1.10;99.90;;;;;;5033251;28;20029;-47
2022/12/14 07:43:03;;;;;;;24.52;13.10;;;-1.00;99.90;;;;;;5032405;28;20021;-47
2022/12/14 07:45:29;;;;;;;24.15;12.35;;;-1.00;99.90;;;;;;5033235;28;20570;-44
2022/12/14 07:47:55;;;;;;;22.33;12.88;;;-1.00;99.90;;;;;;5032753;28;20040;-41
2022/12/14 07:50:21;;;;;;;23.35;13.75;;;-1.00;99.90;;;;;;5033286;28;20398;-45
2022/12/14 07:52:46;;;;;;;25.95;14.57;;;-0.90;99.90;;;;;;5032141;28;20030;-46
2022/12/14 07:55:12;;;;;;;23.33;14.70;;;-0.90;99.90;;;;;;5038152;28;20144;-48
2022/12/14 07:57:37;;;;;;;24.10;14.80;;;-0.90;99.90;;;;;;5033194;28;20108;-41
2022/12/14 08:00:03;;;;;;;26.75;14.98;;;-0.90;99.90;;;;;;5033432;28;20071;-45
2022/12/14 08:02:29;;;;;;;22.58;14.48;;;-0.90;99.90;;;;;;5032405;28;20029;-45
2022/12/14 08:04:54;;;;;;;21.75;13.43;;;-0.90;99.90;;;;;;5015080;28;20018;-46
2022/12/14 08:07:20;;;;;;;27.08;15.10;;;-0.80;99.90;;;;;;5031262;28;20039;-46
2022/12/14 08:09:47;;;;;;;22.60;14.77;;;-0.70;99.90;;;;;;5033005;28;20401;-46
2022/12/14 08:12:12;;;;;;;25.48;15.35;;;-0.70;99.90;;;;;;5032183;28;20386;-46
2022/12/14 08:14:38;;;;;;;29.85;15.43;;;-0.80;99.90;;;;;;5031735;28;20025;-40
2022/12/14 08:17:03;;;;;;;30.17;15.40;;;-0.80;99.90;;;;;;5014858;28;20455;-48
2022/12/14 08:19:29;;;;;;;33.85;14.10;;;-0.80;99.90;;;;;;5032867;28;20025;-48
2022/12/14 08:21:54;;;;;;;26.25;14.40;;;-0.80;99.90;;;;;;5031639;28;20060;-45
2022/12/14 08:24:20;;;;;;;23.13;14.75;;;-0.80;99.90;;;;;;5032221;28;20124;-47
2022/12/14 08:26:45;;;;;;;31.40;15.15;;;-0.70;99.90;;;;;;5031500;28;20117;-46
2022/12/14 08:29:13;;;;;;;31.38;15.82;;;-0.80;99.90;;;;;;5032431;28;20426;-46
2022/12/14 08:31:39;;;;;;;22.63;14.68;;;-0.80;99.90;;;;;;5032333;28;20032;-42
2022/12/14 08:34:04;;;;;;;23.67;14.02;;;-0.90;99.90;;;;;;5031605;28;20030;-41
2022/12/14 08:36:32;;;;;;;23.17;13.55;;;-0.80;99.90;;;;;;5032164;28;20048;-45
2022/12/14 08:39:01;;;;;;;24.85;13.98;;;-0.80;99.90;;;;;;5031144;28;20021;-51
2022/12/14 08:41:27;;;;;;;24.25;15.18;;;-0.80;99.90;;;;;;5031858;28;20515;-50
2022/12/14 08:44:00;;;;;;;20.27;12.90;;;-0.90;99.90;;;;;;5030473;28;20025;-47
2022/12/14 08:46:28;;;;;;;24.73;14.65;;;-0.90;99.90;;;;;;5032390;28;20018;-45
2022/12/14 08:48:54;;;;;;;21.33;13.05;;;-0.90;99.90;;;;;;5014864;28;20033;-46
2022/12/14 08:51:20;;;;;;;24.83;14.23;;;-1.00;99.90;;;;;;5032601;28;20029;-50
2022/12/14 08:53:46;;;;;;;25.90;13.18;;;-1.00;99.90;;;;;;5030579;28;20025;-46
2022/12/14 08:56:14;;;;;;;26.65;15.05;;;-1.00;99.90;;;;;;5032106;28;20036;-47
2022/12/14 08:58:40;;;;;;;24.02;13.93;;;-1.10;99.90;;;;;;5032204;28;20037;-47
2022/12/14 09:01:16;;;;;;;23.63;13.82;;;-1.10;99.90;;;;;;5031912;28;20464;-48
2022/12/14 09:03:43;;;;;;;27.27;13.65;;;-1.20;99.90;;;;;;5029119;28;20034;-51
2022/12/14 09:06:11;;;;;;;22.42;13.50;;;-1.20;99.90;;;;;;5031509;28;20493;-48
2022/12/14 09:08:37;;;;;;;25.90;13.90;;;-1.20;99.90;;;;;;5031762;28;20035;-50
2022/12/14 09:11:04;;;;;;;22.70;12.02;;;-1.30;99.90;;;;;;5013886;28;20106;-46
2022/12/14 09:13:30;;;;;;;24.73;13.93;;;-1.20;99.90;;;;;;5030749;28;20083;-47
2022/12/14 09:15:58;;;;;;;25.75;13.30;;;-1.20;99.90;;;;;;5031532;28;20034;-47
2022/12/14 09:18:23;;;;;;;24.42;12.35;;;-1.10;99.90;;;;;;5031477;28;20035;-47
2022/12/14 09:20:53;;;;;;;23.10;13.85;;;-1.10;99.90;;;;;;5031555;28;20025;-46
2022/12/14 09:23:21;;;;;;;23.13;13.60;;;-1.10;99.90;;;;;;5030933;28;20046;-46
2022/12/14 09:25:56;;;;;;;24.10;14.50;;;-1.20;99.90;;;;;;5031637;28;20021;-46
2022/12/14 09:28:22;;;;;;;28.98;13.60;;;-1.20;99.90;;;;;;5029998;28;20112;-46
2022/12/14 09:30:53;;;;;;;25.75;12.90;;;-1.20;99.90;;;;;;5031842;28;20446;-46
2022/12/14 09:33:19;;;;;;;29.45;13.93;;;-1.20;99.90;;;;;;5013073;28;20040;-47
2022/12/14 09:35:44;;;;;;;20.80;12.07;;;-1.30;99.90;;;;;;5031517;28;20489;-47
2022/12/14 09:38:10;;;;;;;23.33;12.95;;;-1.30;99.90;;;;;;5031481;28;20034;-46
2022/12/14 09:40:41;;;;;;;20.38;12.13;;;-1.20;99.90;;;;;;5031456;28;20075;-49
2022/12/14 09:43:18;;;;;;;31.98;12.63;;;-1.20;99.90;;;;;;5030739;28;20068;-47
2022/12/14 09:45:49;;;;;;;19.42;12.18;;;-1.10;99.90;;;;;;5031649;28;20030;-45
2022/12/14 09:48:19;;;;;;;24.58;12.70;;;-1.20;99.90;;;;;;5031094;28;20022;-48
2022/12/14 09:50:49;;;;;;;24.58;14.55;;;-1.20;99.90;;;;;;5031554;28;20026;-48
2022/12/14 09:53:17;;;;;;;28.58;14.40;;;-1.20;99.90;;;;;;5030460;28;20062;-49
2022/12/14 09:55:48;;;;;;;24.60;13.50;;;-1.20;99.90;;;;;;5031661;28;20036;-48
2022/12/14 09:58:43;;;;;;;23.00;13.65;;;-1.10;99.90;;;;;;5029549;28;20536;-48
2022/12/14 10:01:21;;;;;;;24.35;12.82;;;-1.10;99.90;;;;;;5029870;28;20064;-48
2022/12/14 10:04:17;;;;;;;21.85;12.27;;;-1.00;99.90;;;;;;5031021;28;20067;-47
2022/12/14 10:06:42;;;;;;;32.38;13.52;;;-1.10;99.90;;;;;;5030893;28;20116;-48
2022/12/14 10:09:47;;;;;;;21.73;12.48;;;-1.10;99.90;;;;;;5031101;28;20056;-46
2022/12/14 10:12:28;;;;;;;21.67;12.75;;;-1.20;99.90;;;;;;5030585;28;20031;-46
2022/12/14 10:15:05;;;;;;;33.47;14.02;;;-1.20;99.90;;;;;;5031718;28;20025;-45
2022/12/14 10:17:49;;;;;;;24.63;13.18;;;-1.20;99.90;;;;;;5035472;28;20025;-46
2022/12/14 10:20:20;;;;;;;20.92;12.63;;;-1.20;99.90;;;;;;5036788;28;20041;-45
2022/12/14 10:22:50;;;;;;;23.10;13.15;;;-1.20;99.90;;;;;;5035185;28;20021;-46
2022/12/14 10:25:17;;;;;;;19.25;12.57;;;-1.10;99.90;;;;;;5034767;28;20036;-45
2022/12/14 10:28:01;;;;;;;21.52;13.07;;;-1.00;99.90;;;;;;5034742;28;20030;-49
2022/12/14 10:30:27;;;;;;;19.52;13.18;;;-0.90;99.90;;;;;;5033292;28;20076;-47
2022/12/14 10:33:09;;;;;;;21.33;13.70;;;-0.90;99.90;;;;;;5034098;28;20160;-45
2022/12/14 10:35:53;;;;;;;23.77;13.90;;;-0.80;99.90;;;;;;5034551;28;20400;-50
2022/12/14 10:38:26;;;;;;;21.13;13.20;;;-0.80;99.90;;;;;;5034942;28;20378;-46
2022/12/14 10:40:59;;;;;;;25.33;13.30;;;-0.90;99.90;;;;;;5034737;28;20045;-47
2022/12/14 10:43:37;;;;;;;23.00;13.00;;;-0.90;99.90;;;;;;5033854;28;20093;-50
2022/12/14 10:46:25;;;;;;;23.25;14.32;;;-1.00;99.90;;;;;;5034262;28;20532;-47
2022/12/14 10:49:10;;;;;;;22.38;13.50;;;-1.00;99.90;;;;;;5034323;28;20025;-48
2022/12/14 10:51:41;;;;;;;22.77;13.77;;;-1.00;99.90;;;;;;5034166;28;20166;-50
2022/12/14 10:54:27;;;;;;;23.02;13.20;;;-1.00;99.90;;;;;;5033434;28;20284;-47
2022/12/14 10:56:53;;;;;;;22.95;13.57;;;-1.00;99.90;;;;;;5034155;28;20109;-48
2022/12/14 10:59:22;;;;;;;22.00;12.70;;;-1.00;99.90;;;;;;5034108;28;20481;-49
2022/12/14 11:01:53;;;;;;;25.52;12.93;;;-1.00;99.90;;;;;;5033410;28;20033;-47
2022/12/14 11:04:33;;;;;;;20.17;13.18;;;-1.00;99.90;;;;;;5033907;28;20025;-47
2022/12/14 11:07:01;;;;;;;22.95;12.75;;;-1.10;99.90;;;;;;5033702;28;20495;-45
2022/12/14 11:09:27;;;;;;;23.27;12.20;;;-1.10;99.90;;;;;;5033721;28;20033;-45
2022/12/14 11:12:01;;;;;;;22.00;13.65;;;-1.20;99.90;;;;;;5034123;28;20052;-45
2022/12/14 11:14:27;;;;;;;22.38;13.05;;;-1.20;99.90;;;;;;5034381;28;20068;-49
2022/12/14 11:16:52;;;;;;;21.80;12.32;;;-1.10;99.90;;;;;;5033567;28;20078;-47
2022/12/14 11:19:21;;;;;;;23.00;12.25;;;-1.20;99.90;;;;;;5033808;28;20030;-42
2022/12/14 11:21:48;;;;;;;20.50;12.93;;;-1.20;99.90;;;;;;5033041;28;20064;-44
2022/12/14 11:24:25;;;;;;;22.98;12.50;;;-1.10;99.90;;;;;;5031749;28;20025;-46
2022/12/14 11:26:58;;;;;;;24.73;13.20;;;-1.20;99.90;;;;;;5032607;28;20052;-47
2022/12/14 11:29:34;;;;;;;21.92;13.85;;;-1.20;99.90;;;;;;5033543;28;20060;-49
2022/12/14 11:31:59;;;;;;;22.92;13.95;;;-1.30;99.90;;;;;;5031916;28;20034;-48
2022/12/14 11:34:25;;;;;;;32.08;13.63;;;-1.30;99.90;;;;;;5013584;28;20032;-47
2022/12/14 11:36:51;;;;;;;24.50;12.57;;;-1.10;99.90;;;;;;5032983;28;20036;-48
2022/12/14 11:39:22;;;;;;;23.10;14.50;;;-1.10;99.90;;;;;;5032878;28;20386;-51
2022/12/14 11:41:57;;;;;;;23.25;14.13;;;-1.10;99.90;;;;;;5032273;28;20371;-46
2022/12/14 11:44:27;;;;;;;22.90;13.30;;;-1.20;99.90;;;;;;5033201;28;20482;-49
2022/12/14 11:46:59;;;;;;;31.50;14.23;;;-1.20;99.90;;;;;;5013046;28;20033;-49
2022/12/14 11:49:35;;;;;;;25.02;14.85;;;-1.20;99.90;;;;;;5033192;28;20044;-45
2022/12/14 11:52:03;;;;;;;25.45;14.80;;;-1.10;99.90;;;;;;5031742;28;20040;-52
2022/12/14 11:54:30;;;;;;;24.55;14.10;;;-1.10;99.90;;;;;;5032803;28;20029;-49
2022/12/14 11:57:01;;;;;;;29.38;14.45;;;-1.10;99.90;;;;;;5032432;28;20033;-48
2022/12/14 11:59:35;;;;;;;26.02;15.02;;;-1.00;99.90;;;;;;5030852;28;20116;-47
2022/12/14 12:02:27;;;;;;;22.73;14.98;;;-1.10;99.90;;;;;;5030518;28;20040;-45
2022/12/14 12:04:58;;;;;;;38.97;14.45;;;-1.00;99.90;;;;;;5032498;28;20034;-45
2022/12/14 12:07:52;;;;;;;21.15;12.98;;;-1.20;99.90;;;;;;5032152;28;20037;-48
2022/12/14 12:10:37;;;;;;;28.77;13.43;;;-1.30;99.90;;;;;;5026697;28;20048;-49
2022/12/14 12:13:06;;;;;;;26.40;14.43;;;-1.20;99.90;;;;;;5031935;28;20401;-45
2022/12/14 12:15:41;;;;;;;25.70;16.13;;;-1.10;99.90;;;;;;5032268;28;20040;-45
2022/12/14 12:18:26;;;;;;;30.00;14.63;;;-1.00;99.90;;;;;;5014549;28;20505;-46
2022/12/14 12:21:01;;;;;;;24.92;13.70;;;-1.00;99.90;;;;;;5032372;28;20034;-51
2022/12/14 12:24:03;;;;;;;25.65;14.27;;;-1.00;99.90;;;;;;5031469;28;20104;-46
2022/12/14 12:26:37;;;;;;;22.98;14.10;;;-1.00;99.90;;;;;;5031871;28;20028;-49
2022/12/14 12:29:25;;;;;;;26.92;14.98;;;-0.90;99.90;;;;;;5032195;28;20038;-46
2022/12/14 12:31:58;;;;;;;30.25;14.13;;;-1.00;99.90;;;;;;5031886;28;20057;-47
2022/12/14 12:34:30;;;;;;;33.58;15.15;;;-0.90;99.90;;;;;;5014614;28;20065;-46
2022/12/14 12:37:01;;;;;;;25.45;14.85;;;-0.80;99.90;;;;;;5014766;28;20070;-50
2022/12/14 12:39:29;;;;;;;22.23;13.60;;;-0.80;99.90;;;;;;5031181;28;20458;-51
2022/12/14 12:42:17;;;;;;;27.10;15.18;;;-0.80;99.90;;;;;;5012770;28;20508;-42
2022/12/14 12:45:03;;;;;;;23.20;14.05;;;-0.70;99.90;;;;;;5031534;28;20025;-46
2022/12/14 12:47:34;;;;;;;22.80;12.93;;;-0.60;99.90;;;;;;5031273;28;20025;-48
2022/12/14 12:50:13;;;;;;;21.70;13.60;;;-0.60;99.90;;;;;;5030556;28;20417;-48
2022/12/14 12:52:59;;;;;;;24.02;12.55;;;-0.50;99.90;;;;;;5030822;28;20030;-48
2022/12/14 12:55:26;;;;;;;22.85;13.98;;;-0.50;99.90;;;;;;5014348;28;20033;-50
2022/12/14 12:57:55;;;;;;;21.23;13.63;;;-0.50;99.90;;;;;;5030514;28;20029;-47
2022/12/14 13:00:27;;;;;;;23.60;13.90;;;-0.50;99.90;;;;;;5028492;28;20036;-47
2022/12/14 13:02:57;;;;;;;25.42;14.63;;;-0.50;99.90;;;;;;5031314;28;20329;-50